createdAt,value
2023-05-16T00:00:35.539Z,561.7
2023-05-16T00:01:37.291Z,562
2023-05-16T00:02:39.551Z,561.9
2023-05-16T00:03:44.457Z,561.8
2023-05-16T00:04:46.327Z,562.1
2023-05-16T00:05:48.298Z,562.1
2023-05-16T00:06:50.131Z,562.4
2023-05-16T00:07:51.761Z,562.3
2023-05-16T00:08:53.343Z,562.3
2023-05-16T00:09:54.962Z,562.8
2023-05-16T00:10:56.698Z,562.6
2023-05-16T00:11:58.450Z,562.5
2023-05-16T00:13:00.400Z,562.9
2023-05-16T00:14:02.328Z,563.1
2023-05-16T00:15:04.093Z,563
2023-05-16T00:16:05.971Z,563
2023-05-16T00:17:11.489Z,563
2023-05-16T00:18:13.398Z,563
2023-05-16T00:19:15.546Z,563.5
2023-05-16T00:20:17.426Z,563.4
2023-05-16T00:21:23.700Z,563.5
2023-05-16T00:22:25.667Z,563.4
2023-05-16T00:23:27.510Z,563.2
2023-05-16T00:24:29.368Z,563.3
2023-05-16T00:25:31.219Z,563
2023-05-16T00:26:32.856Z,562.8
2023-05-16T00:27:34.453Z,562.8
2023-05-16T00:28:36.040Z,563.1
2023-05-16T00:29:37.787Z,563
2023-05-16T00:30:39.644Z,562.8
2023-05-16T00:31:41.517Z,563.3
2023-05-16T00:32:43.547Z,563
2023-05-16T00:33:45.507Z,563.1
2023-05-16T00:34:47.497Z,563.4
2023-05-16T00:35:49.436Z,563.3
2023-05-16T00:36:51.273Z,563.4
2023-05-16T00:37:53.107Z,563.4
2023-05-16T00:38:55.050Z,563.9
2023-05-16T00:39:56.845Z,564.1
2023-05-16T00:40:58.761Z,563.6
2023-05-16T00:42:00.421Z,563.5
2023-05-16T00:43:02.033Z,563.6
2023-05-16T00:44:03.690Z,563.7
2023-05-16T00:45:05.512Z,564.1
2023-05-16T00:46:07.375Z,564.3
2023-05-16T00:47:09.336Z,564.6
2023-05-16T00:48:11.463Z,564.8
2023-05-16T00:49:13.212Z,564.9
2023-05-16T00:50:14.996Z,565.3
2023-05-16T00:51:16.647Z,565.5
2023-05-16T00:52:18.460Z,565.3
2023-05-16T00:53:20.380Z,565.7
2023-05-16T00:54:22.203Z,565.6
2023-05-16T00:55:23.860Z,566.2
2023-05-16T00:56:25.450Z,565.9
2023-05-16T00:57:27.125Z,566.1
2023-05-16T00:58:28.961Z,566.1
2023-05-16T00:59:30.826Z,566.4
2023-05-16T01:00:32.619Z,566.2
2023-05-16T01:01:34.783Z,566.1
2023-05-16T01:02:37.038Z,566
2023-05-16T01:03:39.522Z,565.8
2023-05-16T01:04:41.214Z,566.1
2023-05-16T01:05:43.047Z,565.7
2023-05-16T01:06:45.010Z,566
2023-05-16T01:07:46.897Z,566
2023-05-16T01:08:48.546Z,566.3
2023-05-16T01:09:50.187Z,566
2023-05-16T01:10:51.799Z,566.1
2023-05-16T01:11:53.536Z,566.6
2023-05-16T01:12:55.232Z,566.2
2023-05-16T01:13:56.844Z,566.1
2023-05-16T01:14:58.549Z,566.3
2023-05-16T01:16:00.615Z,566.4
2023-05-16T01:17:02.366Z,566.7
2023-05-16T01:18:04.257Z,566.9
2023-05-16T01:19:06.432Z,566.9
2023-05-16T01:20:08.261Z,567
2023-05-16T01:21:09.899Z,566.8
2023-05-16T01:22:11.726Z,566.7
2023-05-16T01:23:13.605Z,566.8
2023-05-16T01:24:15.513Z,567.2
2023-05-16T01:25:17.378Z,567.3
2023-05-16T01:26:19.066Z,567
2023-05-16T01:27:20.680Z,566.9
2023-05-16T01:28:22.507Z,567.1
2023-05-16T01:29:24.136Z,567.4
2023-05-16T01:30:25.752Z,567.5
2023-05-16T01:31:27.735Z,567.5
2023-05-16T01:32:29.433Z,567.1
2023-05-16T01:33:31.202Z,567.7
2023-05-16T01:34:32.997Z,567.9
2023-05-16T01:35:34.859Z,568.1
2023-05-16T01:36:37.934Z,568.2
2023-05-16T01:37:39.626Z,568.6
2023-05-16T01:38:41.269Z,569
2023-05-16T01:39:43.046Z,569.3
2023-05-16T01:40:44.728Z,569.6
2023-05-16T01:41:46.665Z,570.3
2023-05-16T01:42:48.524Z,569.7
2023-05-16T01:43:50.391Z,570.2
2023-05-16T01:44:52.050Z,570.2
2023-05-16T01:45:53.671Z,570
2023-05-16T01:46:55.840Z,571
2023-05-16T01:47:57.619Z,571
2023-05-16T01:48:59.409Z,571.1
2023-05-16T01:50:01.298Z,570.7
2023-05-16T01:51:03.118Z,570.3
2023-05-16T01:52:05.068Z,570.2
2023-05-16T01:53:06.770Z,570.6
2023-05-16T01:54:08.474Z,570.7
2023-05-16T01:55:10.090Z,570.5
2023-05-16T01:56:11.690Z,570.2
2023-05-16T01:57:13.369Z,571.1
2023-05-16T01:58:15.684Z,571.3
2023-05-16T01:59:17.504Z,571.1
2023-05-16T02:00:19.152Z,571.1
2023-05-16T02:01:21.274Z,570.7
2023-05-16T02:02:23.345Z,570.9
2023-05-16T02:03:25.215Z,571.2
2023-05-16T02:04:26.833Z,571.2
2023-05-16T02:05:31.271Z,571.1
2023-05-16T02:06:32.997Z,571.2
2023-05-16T02:07:34.766Z,571.4
2023-05-16T02:08:36.552Z,571.5
2023-05-16T02:09:38.387Z,571.4
2023-05-16T02:10:40.314Z,571.5
2023-05-16T02:11:42.171Z,571.4
2023-05-16T02:12:43.918Z,571.6
2023-05-16T02:13:45.658Z,571.7
2023-05-16T02:14:47.502Z,571.8
2023-05-16T02:15:49.350Z,571.8
2023-05-16T02:16:51.342Z,571.8
2023-05-16T02:17:53.394Z,571.8
2023-05-16T02:18:55.565Z,571.7
2023-05-16T02:19:57.508Z,571.9
2023-05-16T02:20:59.263Z,571.8
2023-05-16T02:22:00.872Z,571.9
2023-05-16T02:23:02.618Z,571.8
2023-05-16T02:24:04.570Z,572.1
2023-05-16T02:25:06.648Z,571.9
2023-05-16T02:26:08.479Z,571.4
2023-05-16T02:27:10.366Z,572
2023-05-16T02:28:12.371Z,572.3
2023-05-16T02:29:14.223Z,571.9
2023-05-16T02:30:16.180Z,572
2023-05-16T02:31:18.261Z,572.2
2023-05-16T02:32:20.118Z,572
2023-05-16T02:33:22.032Z,572.4
2023-05-16T02:34:23.875Z,572
2023-05-16T02:35:26.834Z,572.2
2023-05-16T02:36:28.934Z,572.1
2023-05-16T02:37:30.772Z,571.8
2023-05-16T02:38:32.727Z,572.1
2023-05-16T02:39:34.598Z,572
2023-05-16T02:40:36.391Z,571.8
2023-05-16T02:41:38.276Z,571.3
2023-05-16T02:42:39.930Z,571.2
2023-05-16T02:43:41.625Z,571.5
2023-05-16T02:44:43.382Z,571.7
2023-05-16T02:45:45.261Z,571.6
2023-05-16T02:46:47.930Z,571.6
2023-05-16T02:47:50.089Z,571.8
2023-05-16T02:48:51.933Z,572
2023-05-16T02:49:53.794Z,572.2
2023-05-16T02:50:55.634Z,571.8
2023-05-16T02:51:57.436Z,572
2023-05-16T02:52:59.233Z,572.3
2023-05-16T02:54:01.123Z,572.3
2023-05-16T02:55:36.757Z,572.7
2023-05-16T02:56:38.701Z,572.6
2023-05-16T02:57:40.550Z,573.2
2023-05-16T02:58:42.371Z,573
2023-05-16T02:59:44.136Z,573.3
2023-05-16T03:00:45.967Z,573.7
2023-05-16T03:01:48.086Z,573.8
2023-05-16T03:02:50.487Z,573.8
2023-05-16T03:03:52.871Z,573.5
2023-05-16T03:04:54.800Z,573.1
2023-05-16T03:05:56.669Z,572.8
2023-05-16T03:06:58.607Z,572.9
2023-05-16T03:08:00.354Z,572.3
2023-05-16T03:09:01.940Z,572.4
2023-05-16T03:10:03.750Z,572.3
2023-05-16T03:11:05.602Z,572.3
2023-05-16T03:12:07.984Z,572.6
2023-05-16T03:13:10.110Z,572.3
2023-05-16T03:14:12.169Z,572.7
2023-05-16T03:15:14.033Z,572.3
2023-05-16T03:16:16.221Z,571.6
2023-05-16T03:17:18.125Z,572.1
2023-05-16T03:18:20.071Z,571.8
2023-05-16T03:19:22.249Z,572
2023-05-16T03:20:27.069Z,572
2023-05-16T03:21:28.810Z,572
2023-05-16T03:22:30.862Z,572.5
2023-05-16T03:23:32.690Z,573
2023-05-16T03:24:34.883Z,572.4
2023-05-16T03:25:36.721Z,572
2023-05-16T03:26:38.543Z,571.9
2023-05-16T03:27:40.348Z,572.2
2023-05-16T03:28:42.185Z,572
2023-05-16T03:29:43.915Z,572.2
2023-05-16T03:30:48.528Z,572.2
2023-05-16T03:31:50.779Z,572.4
2023-05-16T03:32:52.822Z,572.6
2023-05-16T03:33:54.627Z,572.6
2023-05-16T03:34:56.436Z,572.7
2023-05-16T03:35:58.290Z,572.7
2023-05-16T03:37:00.245Z,573
2023-05-16T03:38:02.031Z,572.7
2023-05-16T03:39:03.739Z,572.5
2023-05-16T03:40:05.525Z,572.4
2023-05-16T03:41:07.255Z,572.8
2023-05-16T03:42:09.095Z,572.9
2023-05-16T03:43:10.960Z,573.3
2023-05-16T03:44:12.804Z,573.3
2023-05-16T03:45:14.634Z,573.1
2023-05-16T03:46:16.653Z,573.2
2023-05-16T03:47:18.642Z,572.5
2023-05-16T03:48:20.492Z,572.4
2023-05-16T03:49:22.342Z,572.2
2023-05-16T03:50:24.199Z,572.6
2023-05-16T03:51:25.962Z,573
2023-05-16T03:52:27.790Z,573.4
2023-05-16T03:53:29.363Z,572.9
2023-05-16T03:54:31.193Z,572.6
2023-05-16T03:55:33.029Z,572.5
2023-05-16T03:56:34.893Z,572.5
2023-05-16T03:57:36.840Z,572.6
2023-05-16T03:58:38.817Z,572.7
2023-05-16T03:59:40.749Z,572.6
2023-05-16T04:00:42.701Z,573
2023-05-16T04:01:44.783Z,572.9
2023-05-16T04:02:47.281Z,573.3
2023-05-16T04:03:48.962Z,573.1
2023-05-16T04:04:50.809Z,572.7
2023-05-16T04:05:52.894Z,573
2023-05-16T04:06:54.711Z,572.9
2023-05-16T04:07:56.569Z,573.2
2023-05-16T04:08:58.536Z,573.2
2023-05-16T04:10:00.301Z,572.8
2023-05-16T04:11:02.223Z,572.7
2023-05-16T04:12:03.960Z,572.6
2023-05-16T04:13:06.052Z,572.2
2023-05-16T04:14:08.312Z,572.1
2023-05-16T04:15:10.030Z,571.9
2023-05-16T04:16:11.987Z,571.7
2023-05-16T04:17:14.313Z,571.7
2023-05-16T04:18:16.413Z,571.6
2023-05-16T04:19:19.813Z,571.3
2023-05-16T04:20:21.627Z,571.3
2023-05-16T04:21:23.490Z,571.2
2023-05-16T04:22:25.349Z,571
2023-05-16T04:23:27.186Z,571.4
2023-05-16T04:24:29.036Z,571.5
2023-05-16T04:25:31.099Z,571
2023-05-16T04:26:32.946Z,570.7
2023-05-16T04:27:34.885Z,571.3
2023-05-16T04:28:36.640Z,571.3
2023-05-16T04:29:38.505Z,571.9
2023-05-16T04:30:40.343Z,572
2023-05-16T04:31:42.277Z,571.9
2023-05-16T04:32:44.240Z,572.4
2023-05-16T04:33:46.035Z,571.8
2023-05-16T04:34:47.938Z,572.2
2023-05-16T04:35:49.697Z,572.4
2023-05-16T04:36:51.391Z,572.6
2023-05-16T04:37:53.111Z,572.4
2023-05-16T04:38:54.828Z,572.7
2023-05-16T04:39:56.767Z,572.8
2023-05-16T04:40:58.640Z,572.4
2023-05-16T04:42:00.594Z,572.3
2023-05-16T04:43:02.554Z,572.7
2023-05-16T04:44:04.559Z,572.8
2023-05-16T04:45:06.686Z,572.7
2023-05-16T04:46:08.660Z,572.8
2023-05-16T04:47:10.555Z,572.9
2023-05-16T04:48:12.438Z,572.7
2023-05-16T04:49:14.363Z,572.6
2023-05-16T04:50:16.315Z,572.5
2023-05-16T04:51:18.169Z,572.8
2023-05-16T04:52:20.114Z,573.2
2023-05-16T04:53:21.963Z,573.6
2023-05-16T04:54:23.915Z,573.1
2023-05-16T04:55:27.309Z,572.7
2023-05-16T04:56:29.572Z,572.3
2023-05-16T04:57:31.415Z,572.3
2023-05-16T04:58:33.157Z,572.5
2023-05-16T04:59:34.916Z,572.6
2023-05-16T05:00:36.781Z,573.2
2023-05-16T05:01:38.843Z,572.9
2023-05-16T05:02:40.806Z,573.8
2023-05-16T05:03:42.626Z,573.7
2023-05-16T05:04:44.582Z,573.2
2023-05-16T05:05:46.432Z,573.2
2023-05-16T05:06:48.270Z,573
2023-05-16T05:07:50.358Z,572.5
2023-05-16T05:08:52.070Z,573
2023-05-16T05:09:54.022Z,572.9
2023-05-16T05:10:56.078Z,573
2023-05-16T05:11:57.821Z,572.7
2023-05-16T05:12:59.811Z,572.5
2023-05-16T05:14:04.250Z,572.6
2023-05-16T05:15:06.142Z,572.1
2023-05-16T05:16:08.297Z,572.3
2023-05-16T05:17:10.419Z,572
2023-05-16T05:18:12.711Z,572.2
2023-05-16T05:19:14.978Z,572.2
2023-05-16T05:20:16.836Z,572.3
2023-05-16T05:21:18.667Z,572.4
2023-05-16T05:22:20.441Z,572.4
2023-05-16T05:23:22.276Z,572.2
2023-05-16T05:24:24.025Z,572.1
2023-05-16T05:25:26.886Z,571.8
2023-05-16T05:26:29.069Z,571.6
2023-05-16T05:27:30.821Z,571.5
2023-05-16T05:28:32.657Z,571.6
2023-05-16T05:29:34.597Z,572.2
2023-05-16T05:30:36.557Z,572.7
2023-05-16T05:31:38.667Z,573.2
2023-05-16T05:32:40.800Z,573
2023-05-16T05:33:42.612Z,573.3
2023-05-16T05:34:44.254Z,573.5
2023-05-16T05:35:46.111Z,573.5
2023-05-16T05:36:47.848Z,573.6
2023-05-16T05:37:49.703Z,573.5
2023-05-16T05:38:51.611Z,574.1
2023-05-16T05:39:53.411Z,574.1
2023-05-16T05:40:55.452Z,574
2023-05-16T05:41:57.229Z,574.3
2023-05-16T05:42:59.048Z,574.5
2023-05-16T05:44:00.902Z,574.4
2023-05-16T05:45:02.872Z,574.7
2023-05-16T05:46:05.023Z,574.3
2023-05-16T05:47:06.913Z,574.3
2023-05-16T05:48:08.945Z,574.3
2023-05-16T05:49:10.748Z,574.2
2023-05-16T05:50:12.624Z,574.1
2023-05-16T05:51:14.570Z,574.1
2023-05-16T05:52:16.340Z,574
2023-05-16T05:53:18.178Z,573.9
2023-05-16T05:54:20.083Z,574.1
2023-05-16T05:55:22.490Z,574.2
2023-05-16T05:56:24.345Z,575.1
2023-05-16T05:57:26.130Z,575
2023-05-16T05:58:28.039Z,575.3
2023-05-16T05:59:29.892Z,574.4
2023-05-16T06:00:31.652Z,574.7
2023-05-16T06:01:33.603Z,574.9
2023-05-16T06:02:35.971Z,575.1
2023-05-16T06:03:38.130Z,575
2023-05-16T06:04:42.872Z,574.8
2023-05-16T06:05:44.681Z,575.1
2023-05-16T06:06:46.543Z,575.2
2023-05-16T06:07:48.439Z,574.7
2023-05-16T06:08:50.323Z,574.5
2023-05-16T06:09:52.131Z,574.4
2023-05-16T06:10:54.136Z,574.5
2023-05-16T06:11:55.944Z,574.3
2023-05-16T06:12:57.739Z,574.2
2023-05-16T06:13:59.580Z,574.2
2023-05-16T06:15:01.433Z,574
2023-05-16T06:16:03.336Z,574.6
2023-05-16T06:17:05.547Z,575
2023-05-16T06:18:07.944Z,575.3
2023-05-16T06:19:10.280Z,575.3
2023-05-16T06:20:12.212Z,574.8
2023-05-16T06:21:14.175Z,574.6
2023-05-16T06:22:16.127Z,574.7
2023-05-16T06:23:21.875Z,574.1
2023-05-16T06:24:23.665Z,573.9
2023-05-16T06:25:26.489Z,574.1
2023-05-16T06:26:28.441Z,574
2023-05-16T06:27:30.407Z,573.9
2023-05-16T06:28:32.342Z,574.2
2023-05-16T06:29:34.316Z,573.9
2023-05-16T06:30:36.255Z,573.8
2023-05-16T06:31:38.503Z,573.6
2023-05-16T06:32:40.372Z,574.1
2023-05-16T06:33:42.426Z,574.1
2023-05-16T06:34:44.375Z,574.7
2023-05-16T06:35:46.330Z,575
2023-05-16T06:36:48.062Z,575.1
2023-05-16T06:37:49.909Z,575.3
2023-05-16T06:38:52.135Z,574.9
2023-05-16T06:39:54.138Z,574.5
2023-05-16T06:40:55.899Z,574
2023-05-16T06:41:57.625Z,573.6
2023-05-16T06:42:59.483Z,573.7
2023-05-16T06:44:01.426Z,573.9
2023-05-16T06:45:03.380Z,573.8
2023-05-16T06:46:05.578Z,574.5
2023-05-16T06:47:07.660Z,575
2023-05-16T06:48:10.081Z,575.4
2023-05-16T06:49:12.333Z,575.6
2023-05-16T06:50:14.184Z,574.9
2023-05-16T06:51:16.166Z,575
2023-05-16T06:52:17.925Z,575.6
2023-05-16T06:53:19.886Z,575.9
2023-05-16T06:54:21.810Z,576.5
2023-05-16T06:55:24.023Z,576.5
2023-05-16T06:56:25.984Z,576.3
2023-05-16T06:57:27.839Z,576.3
2023-05-16T06:58:29.691Z,576.2
2023-05-16T06:59:31.623Z,576.6
2023-05-16T07:00:33.587Z,576.5
2023-05-16T07:01:35.583Z,576.5
2023-05-16T07:02:37.943Z,576.1
2023-05-16T07:03:40.445Z,576.6
2023-05-16T07:04:42.553Z,576
2023-05-16T07:05:44.509Z,576.4
2023-05-16T07:06:46.318Z,576.3
2023-05-16T07:07:48.176Z,576.1
2023-05-16T07:08:50.017Z,576
2023-05-16T07:09:51.814Z,576.8
2023-05-16T07:10:53.730Z,576.4
2023-05-16T07:11:55.497Z,576.4
2023-05-16T07:12:57.422Z,576.4
2023-05-16T07:13:59.488Z,576.4
2023-05-16T07:15:01.544Z,576.3
2023-05-16T07:16:03.922Z,576.7
2023-05-16T07:17:06.013Z,577
2023-05-16T07:18:08.365Z,576.6
2023-05-16T07:19:10.489Z,577
2023-05-16T07:20:12.477Z,578.2
2023-05-16T07:21:14.379Z,579.4
2023-05-16T07:22:16.114Z,579.8
2023-05-16T07:23:18.175Z,579.7
2023-05-16T07:24:19.912Z,580
2023-05-16T07:25:22.754Z,579.9
2023-05-16T07:26:24.703Z,579.6
2023-05-16T07:27:26.500Z,579.5
2023-05-16T07:28:28.452Z,578.9
2023-05-16T07:29:30.303Z,579.3
2023-05-16T07:30:32.251Z,579.4
2023-05-16T07:31:34.352Z,579.5
2023-05-16T07:32:36.383Z,578.8
2023-05-16T07:33:38.209Z,578.6
2023-05-16T07:34:40.178Z,578.5
2023-05-16T07:35:42.266Z,578.6
2023-05-16T07:36:44.441Z,579
2023-05-16T07:37:46.437Z,578.9
2023-05-16T07:38:48.171Z,578.1
2023-05-16T07:39:49.931Z,578.7
2023-05-16T07:40:51.741Z,578.1
2023-05-16T07:41:53.734Z,577.9
2023-05-16T07:42:55.662Z,577.6
2023-05-16T07:43:57.612Z,578
2023-05-16T07:44:59.359Z,577.7
2023-05-16T07:46:01.549Z,577.3
2023-05-16T07:47:03.823Z,576.8
2023-05-16T07:48:05.782Z,577
2023-05-16T07:49:07.684Z,577.9
2023-05-16T07:50:09.551Z,578.2
2023-05-16T07:51:11.460Z,578.4
2023-05-16T07:52:13.239Z,579.1
2023-05-16T07:53:15.719Z,579.5
2023-05-16T07:54:17.512Z,579.6
2023-05-16T07:55:19.309Z,579.3
2023-05-16T07:56:21.249Z,579.3
2023-05-16T07:57:25.882Z,578.4
2023-05-16T07:58:27.738Z,578
2023-05-16T07:59:29.790Z,578.1
2023-05-16T08:00:31.604Z,578.6
2023-05-16T08:01:33.584Z,578.6
2023-05-16T08:02:35.865Z,578.9
2023-05-16T08:03:38.928Z,578.9
2023-05-16T08:04:40.971Z,579
2023-05-16T08:05:43.241Z,579.4
2023-05-16T08:06:45.557Z,580.5
2023-05-16T08:07:47.658Z,580.9
2023-05-16T08:08:49.457Z,581
2023-05-16T08:09:51.248Z,581.2
2023-05-16T08:10:53.306Z,581.3
2023-05-16T08:11:55.169Z,581.4
2023-05-16T08:12:57.127Z,581.2
2023-05-16T08:13:59.257Z,581.1
2023-05-16T08:15:01.341Z,581.2
2023-05-16T08:16:04.241Z,581.7
2023-05-16T08:17:06.460Z,581.5
2023-05-16T08:18:08.542Z,581.5
2023-05-16T08:19:11.621Z,581
2023-05-16T08:20:13.542Z,580.4
2023-05-16T08:21:15.397Z,580.7
2023-05-16T08:22:18.000Z,580.7
2023-05-16T08:23:20.318Z,581.1
2023-05-16T08:24:22.071Z,581
2023-05-16T08:25:24.489Z,580.9
2023-05-16T08:26:26.259Z,580.8
2023-05-16T08:27:28.630Z,580.5
2023-05-16T08:28:30.510Z,580.1
2023-05-16T08:29:32.467Z,580.5
2023-05-16T08:30:34.295Z,580.2
2023-05-16T08:31:36.590Z,580.2
2023-05-16T08:32:38.846Z,580.1
2023-05-16T08:33:40.769Z,580.1
2023-05-16T08:34:42.519Z,580.3
2023-05-16T08:35:44.362Z,580.5
2023-05-16T08:36:49.390Z,580.4
2023-05-16T08:37:51.398Z,580
2023-05-16T08:38:53.400Z,580.1
2023-05-16T08:39:55.244Z,580.3
2023-05-16T08:40:57.197Z,580.2
2023-05-16T08:41:59.052Z,579.9
2023-05-16T08:43:01.199Z,580.2
2023-05-16T08:44:03.150Z,580.8
2023-05-16T08:45:05.010Z,581.1
2023-05-16T08:46:07.034Z,580.5
2023-05-16T08:47:09.285Z,580.5
2023-05-16T08:48:12.133Z,580.6
2023-05-16T08:49:13.944Z,580.6
2023-05-16T08:50:16.026Z,580.9
2023-05-16T08:51:17.849Z,580.9
2023-05-16T08:52:19.807Z,580.8
2023-05-16T08:53:22.436Z,580.8
2023-05-16T08:54:28.527Z,581.4
2023-05-16T08:55:31.140Z,582.1
2023-05-16T08:56:33.041Z,582.1
2023-05-16T08:57:35.023Z,581.3
2023-05-16T08:58:36.842Z,581
2023-05-16T08:59:38.796Z,581.2
2023-05-16T09:00:40.971Z,580.5
2023-05-16T09:01:43.454Z,580.9
2023-05-16T09:02:45.903Z,581.6
2023-05-16T09:03:48.003Z,581.9
2023-05-16T09:04:50.088Z,581.9
2023-05-16T09:05:52.044Z,582.6
2023-05-16T09:06:53.891Z,583
2023-05-16T09:07:55.644Z,583.1
2023-05-16T09:08:57.758Z,582.4
2023-05-16T09:09:59.533Z,582.1
2023-05-16T09:11:01.489Z,582.5
2023-05-16T09:12:03.236Z,582.4
2023-05-16T09:13:04.912Z,582.4
2023-05-16T09:14:06.858Z,583
2023-05-16T09:15:08.698Z,583
2023-05-16T09:16:10.541Z,583.1
2023-05-16T09:17:13.483Z,583.1
2023-05-16T09:18:15.535Z,582.9
2023-05-16T09:19:17.480Z,582.8
2023-05-16T09:20:19.494Z,582.6
2023-05-16T09:21:21.466Z,583.3
2023-05-16T09:22:23.280Z,583.5
2023-05-16T09:23:25.268Z,583.1
2023-05-16T09:24:27.123Z,582.6
2023-05-16T09:25:33.270Z,582.8
2023-05-16T09:26:35.303Z,582.3
2023-05-16T09:27:37.246Z,582.5
2023-05-16T09:28:39.005Z,582.4
2023-05-16T09:29:40.643Z,582.3
2023-05-16T09:30:42.486Z,581.7
2023-05-16T09:31:44.924Z,581.6
2023-05-16T09:32:47.026Z,581.6
2023-05-16T09:33:48.849Z,581.8
2023-05-16T09:34:50.553Z,581.9
2023-05-16T09:35:52.268Z,582.4
2023-05-16T09:36:54.297Z,582.4
2023-05-16T09:37:56.153Z,582.2
2023-05-16T09:38:58.017Z,582
2023-05-16T09:40:00.214Z,581.7
2023-05-16T09:41:02.225Z,581.8
2023-05-16T09:42:04.068Z,581.4
2023-05-16T09:43:06.358Z,581.2
2023-05-16T09:44:08.288Z,581.7
2023-05-16T09:45:10.141Z,581.1
2023-05-16T09:46:12.314Z,582.1
2023-05-16T09:47:14.301Z,582.8
2023-05-16T09:48:16.531Z,582.8
2023-05-16T09:49:18.460Z,582.2
2023-05-16T09:50:20.913Z,582.8
2023-05-16T09:51:22.777Z,582.9
2023-05-16T09:52:24.626Z,582.9
2023-05-16T09:53:26.417Z,582.7
2023-05-16T09:54:28.275Z,582.7
2023-05-16T09:55:30.812Z,582.7
2023-05-16T09:56:32.731Z,582.5
2023-05-16T09:57:34.788Z,582.3
2023-05-16T09:58:36.736Z,583
2023-05-16T09:59:38.487Z,583.4
2023-05-16T10:00:40.322Z,583.1
2023-05-16T10:01:42.560Z,583.2
2023-05-16T10:02:45.321Z,583.3
2023-05-16T10:03:48.563Z,583.2
2023-05-16T10:04:50.671Z,583.3
2023-05-16T10:05:52.670Z,583.4
2023-05-16T10:06:54.450Z,583.9
2023-05-16T10:07:56.264Z,583.7
2023-05-16T10:08:58.034Z,583.9
2023-05-16T10:10:00.212Z,584.4
2023-05-16T10:11:02.465Z,583.9
2023-05-16T10:12:04.383Z,583.9
2023-05-16T10:13:06.647Z,584
2023-05-16T10:14:08.808Z,583.9
2023-05-16T10:15:10.765Z,583.7
2023-05-16T10:16:13.187Z,583.9
2023-05-16T10:17:15.173Z,584
2023-05-16T10:18:17.430Z,584.4
2023-05-16T10:19:19.736Z,584.3
2023-05-16T10:20:21.639Z,583.2
2023-05-16T10:21:24.509Z,583
2023-05-16T10:22:26.420Z,583.3
2023-05-16T10:23:28.306Z,583.6
2023-05-16T10:24:30.242Z,583.7
2023-05-16T10:25:33.119Z,584.4
2023-05-16T10:26:35.180Z,586
2023-05-16T10:27:37.142Z,586.4
2023-05-16T10:28:38.970Z,586.3
2023-05-16T10:29:55.479Z,586.1
2023-05-16T10:30:57.241Z,585.1
2023-05-16T10:31:59.263Z,585.3
2023-05-16T10:33:01.565Z,585.8
2023-05-16T10:34:03.500Z,586
2023-05-16T10:35:05.359Z,586.7
2023-05-16T10:36:07.299Z,585.9
2023-05-16T10:37:09.248Z,586
2023-05-16T10:38:11.192Z,586.3
2023-05-16T10:39:13.055Z,587.3
2023-05-16T10:40:15.103Z,587.1
2023-05-16T10:41:17.067Z,586.3
2023-05-16T10:42:19.552Z,586.4
2023-05-16T10:43:21.529Z,587.2
2023-05-16T10:44:24.561Z,588.2
2023-05-16T10:45:27.659Z,588.3
2023-05-16T10:46:31.062Z,588.8
2023-05-16T10:47:33.257Z,588.8
2023-05-16T10:48:34.926Z,589.1
2023-05-16T10:49:36.791Z,588.8
2023-05-16T10:50:38.761Z,588.5
2023-05-16T10:51:41.169Z,588.6
2023-05-16T10:52:43.053Z,588.8
2023-05-16T10:53:44.808Z,588.7
2023-05-16T10:54:47.062Z,588.5
2023-05-16T10:55:48.979Z,588.6
2023-05-16T10:56:50.845Z,589
2023-05-16T10:57:53.061Z,588.7
2023-05-16T10:58:55.048Z,588.7
2023-05-16T10:59:58.919Z,588.3
2023-05-16T11:01:00.929Z,588.4
2023-05-16T11:02:03.110Z,589.1
2023-05-16T11:03:06.178Z,589.4
2023-05-16T11:04:08.117Z,589.2
2023-05-16T11:05:10.253Z,589.1
2023-05-16T11:06:11.963Z,589.1
2023-05-16T11:07:13.851Z,588.7
2023-05-16T11:08:15.705Z,588.1
2023-05-16T11:09:17.545Z,588.1
2023-05-16T11:10:19.521Z,587.9
2023-05-16T11:11:21.558Z,588.3
2023-05-16T11:12:23.463Z,588.6
2023-05-16T11:13:25.518Z,588.2
2023-05-16T11:14:27.524Z,587.5
2023-05-16T11:15:30.824Z,586.8
2023-05-16T11:16:32.989Z,586.8
2023-05-16T11:17:35.028Z,587.2
2023-05-16T11:18:36.883Z,587.2
2023-05-16T11:19:38.727Z,587
2023-05-16T11:20:40.671Z,587.5
2023-05-16T11:21:42.480Z,587.2
2023-05-16T11:22:44.357Z,587.1
2023-05-16T11:23:46.129Z,586.5
2023-05-16T11:24:47.978Z,586.8
2023-05-16T11:25:49.922Z,586.7
2023-05-16T11:26:51.975Z,586.3
2023-05-16T11:27:53.863Z,586.6
2023-05-16T11:28:56.186Z,586.6
2023-05-16T11:30:04.411Z,586.2
2023-05-16T11:31:06.470Z,586.2
2023-05-16T11:32:08.385Z,586.8
2023-05-16T11:33:10.477Z,587.4
2023-05-16T11:34:12.302Z,587.8
2023-05-16T11:35:26.372Z,587.7
2023-05-16T11:36:28.384Z,587.4
2023-05-16T11:37:30.339Z,587.5
2023-05-16T11:38:32.197Z,587.3
2023-05-16T11:39:34.193Z,587.5
2023-05-16T11:40:35.905Z,587.9
2023-05-16T11:41:37.648Z,587.6
2023-05-16T11:42:39.509Z,587.4
2023-05-16T11:43:41.456Z,587.7
2023-05-16T11:44:43.986Z,587.6
2023-05-16T11:45:46.068Z,587.8
2023-05-16T11:46:48.171Z,587.4
2023-05-16T11:47:51.119Z,587.8
2023-05-16T11:48:52.871Z,588.2
2023-05-16T11:49:54.807Z,588.6
2023-05-16T11:50:56.737Z,588.3
2023-05-16T11:51:58.605Z,587.7
2023-05-16T11:53:00.369Z,588.3
2023-05-16T11:54:02.091Z,588
2023-05-16T11:55:04.484Z,588
2023-05-16T11:56:06.412Z,588.1
2023-05-16T11:57:08.258Z,587.6
2023-05-16T11:58:10.525Z,587.6
2023-05-16T11:59:12.478Z,588
2023-05-16T12:00:14.881Z,588.6
2023-05-16T12:01:16.890Z,588.4
2023-05-16T12:02:18.843Z,589.3
2023-05-16T12:03:21.228Z,589.1
2023-05-16T12:04:24.670Z,589.3
2023-05-16T12:05:27.841Z,590
2023-05-16T12:06:29.847Z,589.8
2023-05-16T12:07:31.777Z,590.3
2023-05-16T12:08:33.647Z,590.1
2023-05-16T12:09:35.398Z,590.4
2023-05-16T12:10:37.235Z,590.9
2023-05-16T12:11:39.565Z,591.1
2023-05-16T12:12:41.441Z,590.8
2023-05-16T12:13:43.288Z,591.1
2023-05-16T12:14:45.856Z,590.7
2023-05-16T12:15:48.560Z,590.7
2023-05-16T12:16:50.817Z,590.5
2023-05-16T12:17:52.870Z,590.3
2023-05-16T12:18:54.917Z,590.2
2023-05-16T12:19:56.748Z,590.4
2023-05-16T12:20:58.600Z,590.3
2023-05-16T12:22:00.454Z,589.8
2023-05-16T12:23:02.129Z,590.2
2023-05-16T12:24:03.946Z,590.2
2023-05-16T12:25:06.007Z,590.4
2023-05-16T12:26:07.869Z,590.7
2023-05-16T12:27:10.672Z,591.2
2023-05-16T12:28:12.472Z,591.4
2023-05-16T12:29:14.415Z,591.6
2023-05-16T12:30:16.574Z,592.3
2023-05-16T12:31:33.293Z,592.2
2023-05-16T12:32:35.842Z,592.1
2023-05-16T12:33:38.160Z,591.9
2023-05-16T12:34:40.790Z,592
2023-05-16T12:35:43.571Z,592
2023-05-16T12:36:46.176Z,592.4
2023-05-16T12:37:49.107Z,592.4
2023-05-16T12:38:52.144Z,592.6
2023-05-16T12:39:54.842Z,592.9
2023-05-16T12:40:58.292Z,593
2023-05-16T12:42:00.805Z,592.3
2023-05-16T12:43:04.439Z,592.5
2023-05-16T12:44:06.865Z,592.3
2023-05-16T12:45:09.170Z,592
2023-05-16T12:46:11.560Z,592.1
2023-05-16T12:47:18.943Z,591.9
2023-05-16T12:48:21.207Z,592.2
2023-05-16T12:49:23.418Z,591.5
2023-05-16T12:50:25.710Z,591.8
2023-05-16T12:51:27.660Z,591.5
2023-05-16T12:52:29.832Z,591.3
2023-05-16T12:53:31.680Z,591.4
2023-05-16T12:54:33.730Z,590.9
2023-05-16T12:55:35.580Z,590.7
2023-05-16T12:56:37.295Z,590.3
2023-05-16T12:57:39.985Z,590.3
2023-05-16T12:58:42.279Z,590
2023-05-16T12:59:43.936Z,590
2023-05-16T13:00:45.638Z,589.6
2023-05-16T13:01:47.939Z,589.8
2023-05-16T13:02:50.662Z,590.5
2023-05-16T13:03:52.971Z,590.6
2023-05-16T13:04:54.899Z,590.5
2023-05-16T13:05:56.852Z,590.5
2023-05-16T13:07:00.692Z,590.4
2023-05-16T13:08:02.803Z,590.5
2023-05-16T13:09:04.723Z,591
2023-05-16T13:10:06.527Z,590.9
2023-05-16T13:11:08.340Z,591
2023-05-16T13:12:10.197Z,590.8
2023-05-16T13:13:36.761Z,590.5
2023-05-16T13:14:40.087Z,591.2
2023-05-16T13:15:42.509Z,590.9
2023-05-16T13:16:44.659Z,590.5
2023-05-16T13:17:46.809Z,590.9
2023-05-16T13:18:49.398Z,590.6
2023-05-16T13:19:51.405Z,591.2
2023-05-16T13:20:53.178Z,591.9
2023-05-16T13:21:55.011Z,592
2023-05-16T13:22:56.890Z,592.1
2023-05-16T13:23:58.696Z,592.1
2023-05-16T13:25:00.775Z,591.9
2023-05-16T13:26:02.662Z,591.8
2023-05-16T13:27:04.666Z,591.1